M I D A S
Marine Information and Data Acquisition System
Tripno 177 of the Zeeleeuw from 2001-11-12 07:05:00 to 2001-11-14 18:20:00
Back to CruiseResearch ActivitiesStationsMapUnderway DataData graphs

EquipmentUnitsComment
TimeDGPSUTC
LatitudeDGPSDM.mWGS84
LongitudeDGPSDM.mWGS84
TemperatureSBE03/SBE38deg celciusITS90
ConductivitySBE21S/mITS90
SalinitySBE21 Practical Salinity Units
ChlorophylAChelsea fluorimeterg/lCalibrated in Aceton
Missing or incorrect values are displayed as -999
Sea surface data collected by the RV Zeeleeuw from 2001-11-12 07:05:00 to 2001-11-14 18:20:00
Time Latitude Longitude Temperature Conductivity Salinity ChlorophylA
2001-11-12 08:48:13 51°13.69 2°55.907 16.791899 0.058958 0.338735  
2001-11-12 08:49:13 51°13.689 2°55.906 16.796645 0.058859 0.338086  
2001-11-12 08:50:13 51°13.689 2°55.906 12.190783 0.904924 6.301306  
2001-11-12 08:51:13 51°13.69 2°55.906 11.286901 0.921335 6.972933  
2001-11-12 08:52:13 51°13.69 2°55.907 10.791337 0.948776 7.33383  
2001-11-12 08:53:13 51°13.69 2°55.907 10.551331 0.976917 7.653691  
2001-11-12 08:54:13 51°13.69 2°55.906 10.756481 1.756903 14.515193  
2001-11-12 08:55:13 51°13.69 2°55.906 10.743267 3.043792 26.398049  
2001-11-12 08:56:11 51°13.69 2°55.907 10.748135 3.175457 27.672504  
2001-11-12 08:57:08 51°13.69 2°55.907 10.750315 3.265886 28.552327  
2001-11-12 08:58:08 51°13.69 2°55.907 10.748785 3.28181 28.714565  
2001-11-12 08:59:08 51°13.69 2°55.907 10.692423 3.29453 28.851579  
2001-11-12 09:00:09 51°13.69 2°55.907 10.669169 3.24085 28.373016  
2001-11-12 09:01:08 51°13.689 2°55.907 10.654961 3.212109 28.114354  
2001-11-12 09:02:12 51°13.689 2°55.906 10.652454 3.204698 28.051785  
2001-11-12 09:03:12 51°13.689 2°55.906 10.644002 3.203897 28.055027  
2001-11-12 09:04:12 51°13.688 2°55.906 10.641262 3.197488 27.997238  
2001-11-12 09:05:12 51°13.687 2°55.905 10.567607 3.158636 27.642427  
2001-11-12 09:06:12 51°13.685 2°55.905 10.558353 3.092752 27.045547  
2001-11-12 09:07:14 51°13.687 2°55.86 10.546634 3.059913 26.746114  
2001-11-12 09:08:13 51°13.681 2°55.796 10.484977 3.100662 27.113079  
2001-11-12 09:09:13 51°13.672 2°55.757 10.367927 2.913164 25.412901  
2001-11-12 09:10:13 51°13.698 2°55.759 11.030006 2.896149 25.270964  
2001-11-12 09:11:13 51°13.703 2°55.755 11.016846 2.714226 23.603107  
2001-11-12 09:12:13 51°13.706 2°55.75 11.026358 2.712025 23.585692  
2001-11-12 09:13:13 51°13.711 2°55.743 11.557319 2.712025 23.585692  
2001-11-12 09:14:13 51°13.726 2°55.722 11.109785 2.723631 23.694635  
2001-11-12 09:15:13 51°13.809 2°55.652 11.283268 2.744442 23.886505  
2001-11-12 09:16:13 51°13.94 2°55.558 10.924377 2.8351 24.708605  
2001-11-12 09:17:13 51°14.068 2°55.463 10.786007 2.657502 23.079138  
2001-11-12 09:18:13 51°14.189 2°55.354 10.496243 2.596684 22.552656  
2001-11-12 09:19:12 51°14.291 2°55.208 10.668705 2.340201 20.227982  
2001-11-12 09:20:13 51°14.382 2°55.034 10.955446 2.341001 20.258947  
2001-11-12 09:21:13 51°14.518 2°54.925 11.411187 2.869127 25.064074  
2001-11-12 09:22:12 51°14.673 2°54.785 11.698055 3.244656 28.446399  
2001-11-12 09:23:13 51°14.842 2°54.629 11.641037 3.379266 29.636082  
2001-11-12 09:24:13 51°15.015 2°54.469 11.850304 3.417431 29.957289  
2001-11-12 09:25:13 51°15.205 2°54.338 11.708246 3.421638 29.976111  
2001-11-12 09:26:12 51°15.416 2°54.248 11.92263 3.461106 30.2956  
2001-11-12 09:27:13 51°15.564 2°54.168 12.222168 3.484448 30.486821  
2001-11-12 09:28:13 51°15.656 2°54.078 12.318862 3.506888 30.624891  
2001-11-12 09:29:13 51°15.822 2°53.893 12.35521 3.511697 30.649097  
2001-11-12 09:30:13 51°16.007 2°53.703 12.02531 3.512799 30.633446  
2001-11-12 09:31:13 51°16.197 2°53.522 12.479721 3.510594 30.55964  
2001-11-12 09:32:13 51°16.388 2°53.342 12.320809 3.527024 30.695428  
2001-11-12 09:33:13 51°16.577 2°53.16 12.556734 3.533136 30.730798  
2001-11-12 09:34:12 51°16.769 2°52.989 12.18366 3.537343 30.762881  
2001-11-12 09:35:13 51°16.958 2°52.793 12.407548 3.539447 30.783197  
2001-11-12 09:36:13 51°17.139 2°52.584 12.490877 3.543155 30.823609  
2001-11-12 09:37:13 51°17.316 2°52.367 12.56129 3.54596 30.875141  
2001-11-12 09:38:13 51°17.504 2°52.172 11.858602 3.547564 30.927718  
2001-11-12 09:39:13 51°17.685 2°51.962 12.232098 3.546362 30.971189  
2001-11-12 09:40:13 51°17.872 2°51.762 11.991056 3.546764 31.009046  
2001-11-12 09:41:13 51°18.061 2°51.569 12.262558 3.545661 30.998347  
2001-11-12 09:42:13 51°18.257 2°51.393 12.472087 3.557584 31.098073  
2001-11-12 09:43:13 51°18.492 2°51.459 12.197996 3.554578 31.046207  
2001-11-12 09:44:13 51°18.723 2°51.62 11.97663 3.555079 31.045066  
2001-11-12 09:45:13 51°18.964 2°51.663 11.758266 3.555981 31.054477  
2001-11-12 09:46:13 51°19.177 2°51.542 12.211784 3.557083 31.057164  
2001-11-12 09:47:13 51°19.377 2°51.376 12.097446 3.564697 31.086971  
2001-11-12 09:48:13 51°19.577 2°51.215 12.785351 3.593452 31.265834  
2001-11-12 09:49:13 51°19.791 2°51.095 12.753915 3.60828 31.345635  
2001-11-12 09:50:13 51°19.998 2°50.958 12.443622 3.629422 31.484737  
2001-11-12 09:51:13 51°20.203 2°50.813 12.986341 3.659582 31.688147  
2001-11-12 09:52:13 51°20.424 2°50.715 13.089362 3.665594 31.733255  
2001-11-12 09:53:13 51°20.645 2°50.611 12.882263 3.669802 31.749554  
2001-11-12 09:54:13 51°20.869 2°50.508 12.648212 3.664993 31.729485  
2001-11-12 09:55:13 51°21.093 2°50.402 12.981948 3.658781 31.701261  
2001-11-12 09:56:12 51°21.311 2°50.29 12.428977 3.650965 31.666287  
2001-11-12 09:57:13 51°21.546 2°50.212 12.836228 3.639943 31.599637  
2001-11-12 09:58:13 51°21.77 2°50.104 12.715264 3.642648 31.569344  
2001-11-12 09:59:13 51°21.985 2°49.984 13.182392 3.667898 31.694342  
2001-11-12 10:00:13 51°22.2 2°49.863 13.685902 3.774117 32.207609  
2001-11-12 10:01:13 51°22.424 2°49.777 13.446063 3.788047 32.265582  
2001-11-12 10:02:12 51°22.643 2°49.686 13.714819 3.790552 32.277303  
2001-11-12 10:03:13 51°22.874 2°49.598 13.673702 3.791554 32.278782  
2001-11-12 10:04:13 51°23.104 2°49.518 13.566823 3.791555 32.283461  
2001-11-12 10:05:13 51°23.333 2°49.435 13.444772 3.796766 32.316135  
2001-11-12 10:06:13 51°23.561 2°49.351 13.439206 3.799873 32.332864  
2001-11-12 10:07:13 51°23.788 2°49.268 13.394668 3.799372 32.334806  
2001-11-12 10:08:13 51°24.017 2°49.19 13.070203 3.800875 32.344366  
2001-11-12 10:09:12 51°24.242 2°49.111 13.449223 3.809694 32.395772  
2001-11-12 10:10:13 51°24.474 2°49.032 13.473214 3.813903 32.422231  
2001-11-12 10:11:13 51°24.705 2°48.957 13.527572 3.818614 32.454758  
2001-11-12 10:12:13 51°24.938 2°48.892 13.416985 3.826731 32.502077  
2001-11-12 10:13:13 51°25.172 2°48.831 13.625457 3.825729 32.489247  
2001-11-12 10:14:13 51°25.41 2°48.787 13.699076 3.818513 32.44778  
2001-11-12 10:15:13 51°25.644 2°48.733 13.594458 3.823625 32.481401  
2001-11-12 10:16:13 51°25.88 2°48.688 13.433329 3.868825 32.742592  
2001-11-12 10:17:12 51°26.112 2°48.639 13.775317 3.876843 32.788614  
2001-11-12 10:18:12 51°26.347 2°48.587 13.280202 3.880151 32.800962  
2001-11-12 10:19:13 51°26.587 2°48.537 13.736365 3.881453 32.800472  
2001-11-12 10:20:12 51°26.82 2°48.493 13.749839 3.885863 32.828561  
2001-11-12 10:21:12 51°27.057 2°48.453 13.69504 3.889572 32.848688  
2001-11-12 10:22:13 51°27.294 2°48.404 13.562512 3.893982 32.875405  
2001-11-12 10:23:13 51°27.529 2°48.362 13.498308 3.894583 32.870312  
2001-11-12 10:24:13 51°27.766 2°48.322 13.905878 3.899495 32.911131  
2001-11-12 10:25:13 51°28.003 2°48.285 13.406162 3.9018 32.922054  
2001-11-12 10:26:13 51°28.242 2°48.246 14.031464 3.907112 32.963264  
2001-11-12 10:27:13 51°28.483 2°48.208 13.82009 3.908515 32.963672  
2001-11-12 10:28:13 51°28.721 2°48.168 13.867886 3.913126 33.003651  
2001-11-12 10:29:13 51°28.959 2°48.133 14.050879 3.93197 33.13557  
2001-11-12 10:30:13 51°29.197 2°48.106 14.10292 3.939587 33.180111  
2001-11-12 10:31:13 51°29.434 2°48.072 14.291123 3.945802 33.227654  
2001-11-12 10:32:13 51°29.672 2°48.037 14.157652 3.94901 33.248302  
2001-11-12 10:33:13 51°29.911 2°48.006 14.21168 3.947807 33.227545  
2001-11-12 10:34:13 51°30.15 2°47.97 14.24521 3.951615 33.243689  
2001-11-12 10:35:13 51°30.391 2°47.942 14.400281 3.959033 33.282169  
2001-11-12 10:36:13 51°30.63 2°47.912 14.200235 3.966951 33.314486  
2001-11-12 10:37:13 51°30.869 2°47.879 14.373722 3.977776 33.367198  
2001-11-12 10:38:13 51°31.107 2°47.847 14.029787 3.988903 33.416543  
2001-11-12 10:39:13 51°31.346 2°47.821 14.644884 4.000831 33.483399  
2001-11-12 10:40:13 51°31.585 2°47.792 14.280087 4.003537 33.477605  
2001-11-12 10:41:13 51°31.824 2°47.763 14.264344 4.012258 33.531276  
2001-11-12 10:42:13 51°32.063 2°47.737 14.38404 4.016167 33.552197  
2001-11-12 10:43:13 51°32.301 2°47.713 14.428278 4.020578 33.582504  
2001-11-12 10:44:13 51°32.539 2°47.684 14.295035 4.022683 33.596043  
2001-11-12 10:45:13 51°32.778 2°47.656 14.158798 4.025189 33.609261  
2001-11-12 10:46:13 51°33.017 2°47.629 14.704858 4.0296 33.640894  
2001-11-12 10:47:13 51°33.202 2°47.598 14.460605 4.030201 33.643116  
2001-11-12 10:48:13 51°33.297 2°47.589 14.388956 4.029199 33.629722  
2001-11-12 10:49:13 51°33.365 2°47.604 14.333314 4.030502 33.635778  
2001-11-12 10:50:13 51°33.419 2°47.626 14.305145 4.03371 33.653485  
2001-11-12 10:51:13 51°33.469 2°47.655 14.373414 4.03361 33.649173  
2001-11-12 10:52:13 51°33.518 2°47.678 14.00467 4.035815 33.673088  
2001-11-12 10:53:13 51°33.561 2°47.697 13.966072 4.032507 33.648367  
2001-11-12 10:54:13 51°33.598 2°47.705 14.505057 4.033509 33.658378  
2001-11-12 10:55:13 51°33.633 2°47.688 14.076993 4.032306 33.647176  
2001-11-12 10:56:13 51°33.667 2°47.636 14.511236 4.034011 33.659665  
2001-11-12 10:57:13 51°33.711 2°47.571 14.47319 4.033409 33.652713  
2001-11-12 10:58:13 51°33.782 2°47.539 14.40252 4.030702 33.630888  
2001-11-12 10:59:13 51°33.858 2°47.511 14.229987 4.033209 33.651522  
2001-11-12 11:00:13 51°33.928 2°47.472 14.611114 4.036116 33.667774  
2001-11-12 11:01:13 51°34.002 2°47.43 14.565199 4.035915 33.661853  
2001-11-12 11:02:13 51°34.083 2°47.399 14.527096 4.036416 33.666518  
2001-11-12 11:03:13 51°34.163 2°47.366 14.496598 4.03802 33.680097  
2001-11-12 11:04:13 51°34.236 2°47.325 14.321846 4.039323 33.686819  
2001-11-12 11:05:13 51°34.313 2°47.286 14.635655 4.040727 33.695149  
2001-11-12 11:06:13 51°34.386 2°47.24 14.397648 4.039624 33.686238  
2001-11-12 11:07:13 51°34.464 2°47.223 14.448413 4.041128 33.696852  
2001-11-12 11:08:13 51°34.521 2°47.237 14.403924 4.041128 33.6955  
2001-11-12 11:09:13 51°34.562 2°47.27 14.620389 4.041128 33.69212  
2001-11-12 11:10:13 51°34.593 2°47.313 14.331117 4.04193 33.700259  
2001-11-12 11:11:13 51°34.619 2°47.36 14.421522 4.041629 33.696784  
2001-11-12 11:12:13 51°34.643 2°47.408 14.214408 4.045438 33.711945  
2001-11-12 11:13:13 51°34.664 2°47.456 14.378552 4.044235 33.702783  
2001-11-12 11:14:13 51°34.687 2°47.505 14.515267 4.042832 33.701893  
2001-11-12 11:15:13 51°34.709 2°47.552 14.336697 4.041428 33.69289  
2001-11-12 11:16:13 51°34.729 2°47.599 14.44429 4.043233 33.7063  
2001-11-12 11:17:13 51°34.749 2°47.647 14.374073 4.04213 33.698744  
2001-11-12 11:18:13 51°34.772 2°47.694 14.335774 4.043634 33.708679  
2001-11-12 11:19:13 51°34.824 2°47.726 14.301717 4.042431 33.702895  
2001-11-12 11:20:13 51°34.871 2°47.711 14.372624 4.04213 33.69604  
2001-11-12 11:21:13 51°34.892 2°47.706 14.119098 4.042631 33.70476  
2001-11-12 11:22:13 51°34.905 2°47.72 14.195612 4.041228 33.688322  
2001-11-12 11:23:13 51°34.915 2°47.74 13.978528 4.042631 33.697324  
2001-11-12 11:24:13 51°34.922 2°47.762 14.195833 4.043433 33.706137  
2001-11-12 11:25:13 51°34.931 2°47.783 14.554384 4.042732 33.700285  
2001-11-12 11:26:13 51°34.942 2°47.795 14.554515 4.043433 33.702082  
2001-11-12 11:27:13 51°34.958 2°47.805 14.625463 4.043133 33.703339  
2001-11-12 11:28:13 51°34.974 2°47.814 14.302816 4.04223 33.695621  
2001-11-12 11:29:13 51°34.988 2°47.821 14.055335 4.046441 33.730061  
2001-11-12 11:30:13 51°35.007 2°47.828 14.3764 4.043233 33.701568  
2001-11-12 11:31:13 51°35.035 2°47.834 14.659839 4.044135 33.709962  
2001-11-12 11:32:13 51°35.065 2°47.843 14.483624 4.044135 33.718754  
2001-11-12 11:33:13 51°35.092 2°47.858 14.014559 4.043534 33.70707  
2001-11-12 11:34:13 51°35.117 2°47.877 14.481476 4.044336 33.715885  
2001-11-12 11:35:13 51°35.144 2°47.897 13.50022 4.044235 33.70819  
2001-11-12 11:36:13 51°35.169 2°47.919 13.464625 4.039123 33.662658  
2001-11-12 11:37:13 51°35.196 2°47.945 13.463734 4.036416 33.63546  
2001-11-12 11:38:13 51°35.222 2°47.973 13.473169 4.042732 33.694878  
2001-11-12 11:39:13 51°35.251 2°48.003 13.472902 4.044235 33.702783  
2001-11-12 11:40:13 51°35.28 2°48.035 13.498575 4.044235 33.701432  
2001-11-12 11:41:13 51°35.309 2°48.067 13.496528 4.043132 33.669575  
2001-11-12 11:42:13 51°35.341 2°48.1 13.512897 4.044335 33.69696  
2001-11-12 11:43:13 51°35.375 2°48.135 13.487319 4.048545 33.709765  
2001-11-12 11:44:13 51°35.407 2°48.169 13.495372 4.050049 33.730496  
2001-11-12 11:45:13 51°35.445 2°48.193 13.476818 4.047343 33.709387  
2001-11-12 11:46:14 51°35.489 2°48.166 13.467028 4.044536 33.702878  
2001-11-12 11:47:13 51°35.475 2°48.117 13.476462 4.045639 33.719218  
2001-11-12 11:48:13 51°35.378 2°48.083 13.467517 4.04604 33.713484  
2001-11-12 11:49:13 51°35.268 2°48.059 13.464758 4.045037 33.710243  
2001-11-12 11:50:13 51°35.183 2°48.041 13.462933 4.044335 33.707095  
2001-11-12 11:51:13 51°35.109 2°48.014 13.459506 4.043634 33.701243  
2001-11-12 11:52:13 51°35.037 2°47.991 13.458794 4.043433 33.706137  
2001-11-12 11:53:13 51°34.959 2°47.979 13.458616 4.042932 33.697419  
2001-11-12 11:54:13 51°34.883 2°47.964 13.456435 4.041228 33.683592  
2001-11-12 11:55:13 51°34.804 2°47.952 13.456435 4.040727 33.678929  
2001-11-12 11:56:13 51°34.725 2°47.94 13.455277 4.040426 33.675456  
2001-11-12 11:57:13 51°34.649 2°47.911 13.455411 4.040526 33.677064  
2001-11-12 11:58:13 51°34.571 2°47.892 13.455277 4.040225 33.673591  
2001-11-12 11:59:13 51°34.496 2°47.861 13.491012 4.039824 33.669186  
2001-11-12 12:00:13 51°34.421 2°47.833 13.454254 4.039624 33.670022  
2001-11-12 12:01:13 51°34.342 2°47.817 13.454521 4.039323 33.666549  
2001-11-12 12:02:13 51°34.26 2°47.814 13.454521 4.038621 33.659346  
2001-11-12 12:03:13 51°34.182 2°47.794 13.45323 4.039123 33.662658  
2001-11-12 12:04:13 51°34.104 2°47.778 13.452963 4.038722 33.656904  
2001-11-12 12:05:13 51°34.024 2°47.765 13.453141 4.03792 33.651469  
2001-11-12 12:06:13 51°33.943 2°47.75 13.451271 4.03792 33.652819  
2001-11-12 12:07:13 51°33.862 2°47.736 13.450381 4.037719 33.650279  
2001-11-12 12:08:13 51°33.781 2°47.726 13.44958 4.032306 33.603304  
2001-11-12 12:09:13 51°33.699 2°47.715 13.449223 4.03812 33.656034  
2001-11-12 12:10:13 51°33.616 2°47.708 13.449134 4.032807 33.60864  
2001-11-12 12:11:13 51°33.534 2°47.7 13.446107 4.036015 33.639152  
2001-11-12 12:12:13 51°33.448 2°47.705 13.448378 4.037318 33.652624  
2001-11-12 12:13:13 51°33.363 2°47.715 13.444415 4.035012 33.629152  
2001-11-12 12:14:13 51°33.276 2°47.732 13.478598 4.034511 33.628537  
2001-11-12 12:15:13 51°33.192 2°47.735 13.441566 4.030902 33.594295  
2001-11-12 12:16:13 51°33.112 2°47.717 13.438494 4.031103 33.598856  
2001-11-12 12:17:13 51°33.029 2°47.703 13.440898 4.032607 33.614192  
2001-11-12 12:18:13 51°32.945 2°47.696 13.439384 4.032607 33.612169  
2001-11-12 12:19:13 51°32.858 2°47.699 13.438494 4.032005 33.609271  
2001-11-12 12:20:13 51°32.769 2°47.712 13.439162 4.028597 33.580936  
2001-11-12 12:21:13 51°32.68 2°47.731 13.436446 4.028296 33.576791  
2001-11-12 12:22:13 51°32.592 2°47.74 13.435733 4.030702 33.600519  
2001-11-12 12:23:13 51°32.508 2°47.73 13.435644 4.030502 33.599328  
2001-11-12 12:24:13 51°32.42 2°47.727 13.43836 4.031905 33.61171  
2001-11-12 12:25:13 51°32.333 2°47.735 13.438761 4.031303 33.604092  
2001-11-12 12:26:13 51°32.244 2°47.75 13.43698 4.030401 33.595025  
2001-11-12 12:27:13 51°32.155 2°47.778 13.433106 4.030602 33.59689  
2001-11-12 12:28:13 51°32.067 2°47.792 13.426961 4.029499 33.590677  
2001-11-12 12:29:13 51°31.983 2°47.78 13.456969 4.028597 33.58835  
2001-11-12 12:30:13 51°31.896 2°47.774 13.413779 4.027093 33.577729  
2001-11-12 12:31:13 51°31.808 2°47.784 13.407053 4.026291 33.576333  
2001-11-12 12:32:13 51°31.72 2°47.79 13.399747 4.024186 33.564156  
2001-11-12 12:33:13 51°31.63 2°47.798 13.393599 4.022983 33.558351  
2001-11-12 12:34:13 51°31.541 2°47.799 13.37983 4.02148 33.55042  
2001-11-12 12:35:13 51°31.446 2°47.798 13.401217 4.018372 33.531596  
2001-11-12 12:36:13 51°31.323 2°47.794 13.345151 4.014563 33.512968  
2001-11-12 12:37:13 51°31.189 2°47.792 13.330347 4.010654 33.494067  
2001-11-12 12:38:13 51°31.046 2°47.818 13.301978 4.008048 33.48393  
2001-11-12 12:39:13 51°30.9 2°47.843 13.280782 4.002936 33.458508  
2001-11-12 12:40:13 51°30.754 2°47.865 13.269267 3.999928 33.44394  
2001-11-12 12:41:13 51°30.608 2°47.89 13.261991 3.997823 33.43576  
2001-11-12 12:42:13 51°30.461 2°47.918 13.254937 3.996721 33.430864  
2001-11-12 12:43:13 51°30.316 2°47.944 13.24757 3.99622 33.429558  
2001-11-12 12:44:13 51°30.169 2°47.968 13.234173 3.994816 33.427247  
2001-11-12 12:45:13 51°30.023 2°47.997 13.217423 3.993213 33.423065  
2001-11-12 12:46:13 51°29.869 2°48.025 13.184045 3.991409 33.424431  
2001-11-12 12:47:13 51°29.71 2°48.054 13.160666 3.986196 33.402725  
2001-11-12 12:48:13 51°29.549 2°48.083 13.15235 3.982087 33.387257  
2001-11-12 12:49:13 51°29.388 2°48.11 13.133656 3.981485 33.379607  
2001-11-12 12:50:13 51°29.227 2°48.142 13.069128 3.976273 33.362585  
2001-11-12 12:51:13 51°29.065 2°48.168 13.050188 3.963743 33.292544  
2001-11-12 12:52:13 51°28.903 2°48.194 13.037692 3.959834 33.265373  
2001-11-12 12:53:13 51°28.743 2°48.224 12.928624 3.953219 33.220251  
2001-11-12 12:54:13 51°28.583 2°48.239 12.899545 3.925053 33.048376  
2001-11-12 12:55:13 51°28.422 2°48.269 12.893082 3.918037 33.003359  
2001-11-12 12:56:13 51°28.258 2°48.286 12.883834 3.916934 32.99704  
2001-11-12 12:57:13 51°28.093 2°48.306 12.875258 3.914128 32.983458  
2001-11-12 12:58:13 51°27.928 2°48.316 12.870993 3.912925 32.979557  
2001-11-12 12:59:13 51°27.764 2°48.342 12.868523 3.910319 32.957091  
2001-11-12 13:00:13 51°27.599 2°48.354 12.869735 3.909317 32.947675  
2001-11-12 13:01:13 51°27.434 2°48.377 12.87692 3.910319 32.957091  
2001-11-12 13:02:13 51°27.269 2°48.393 12.884103 3.911923 32.965435  
2001-11-12 13:03:13 51°27.148 2°48.405 12.925573 3.914428 32.980904  
2001-11-12 13:04:13 51°27.067 2°48.413 12.894967 3.916533 32.99731  
2001-11-12 13:05:13 51°27.002 2°48.425 12.891511 3.916834 32.997444  
2001-11-12 13:06:13 51°26.943 2°48.43 12.887515 3.915932 32.991662  
2001-11-12 13:07:13 51°26.887 2°48.436 12.880063 3.912624 32.967992  
2001-11-12 13:08:13 51°26.833 2°48.437 12.877863 3.911822 32.962477  
2001-11-12 13:09:13 51°26.78 2°48.436 12.876291 3.911321 32.958442  
2001-11-12 13:10:13 51°26.727 2°48.436 12.875348 3.910419 32.951313  
2001-11-12 13:11:13 51°26.674 2°48.438 12.873462 3.908014 32.931405  
2001-11-12 13:12:13 51°26.619 2°48.441 12.875348 3.908114 32.932347  
2001-11-12 13:13:13 51°26.566 2°48.443 12.875707 3.908114 32.932347  
2001-11-12 13:14:13 51°26.513 2°48.446 12.874046 3.907913 32.929121  
2001-11-12 13:15:13 51°26.46 2°48.446 12.871576 3.906009 32.91392  
2001-11-12 13:16:13 51°26.407 2°48.441 12.869241 3.905808 32.914051  
2001-11-12 13:17:13 51°26.354 2°48.44 12.866412 3.905909 32.917006  
2001-11-12 13:18:13 51°26.301 2°48.438 12.860799 3.903202 32.894942  
2001-11-12 13:19:13 51°26.249 2°48.436 12.850783 3.903002 32.895743  
2001-11-12 13:20:13 51°26.197 2°48.433 12.842338 3.901499 32.891684  
2001-11-12 13:21:13 51°26.162 2°48.432 12.831196 3.898291 32.870269  
2001-11-12 13:22:13 51°26.14 2°48.432 12.818929 3.895685 32.858524  
2001-11-12 13:23:13 51°26.128 2°48.435 12.818075 3.893581 32.846118  
2001-11-12 13:24:13 51°26.122 2°48.441 12.81439 3.891877 32.832111  
2001-11-12 13:25:13 51°26.12 2°48.448 12.813716 3.891476 32.829013  
2001-11-12 13:26:13 51°26.119 2°48.458 12.811783 3.891676 32.830897  
2001-11-12 13:27:13 51°26.113 2°48.453 12.81003 3.890674 32.822815  
2001-11-12 13:28:13 51°26.113 2°48.414 12.841754 3.889872 32.8193  
2001-11-12 13:29:13 51°26.125 2°48.384 12.808143 3.889471 32.818212  
2001-11-12 13:30:13 51°26.136 2°48.369 12.845437 3.889972 32.820913  
2001-11-12 13:31:13 51°26.145 2°48.363 12.809311 3.890874 32.826712  
2001-11-12 13:32:13 51°26.153 2°48.368 12.810435 3.892077 32.836008  
2001-11-12 13:33:14 51°26.159 2°48.38 12.812143 3.892378 32.841518  
2001-11-12 13:34:13 51°26.164 2°48.396 12.812233 3.891476 32.830354  
2001-11-12 13:35:13 51°26.17 2°48.414 12.847863 3.890073 32.821185  
2001-11-12 13:36:13 51°26.175 2°48.432 12.807468 3.890173 32.822127  
2001-11-12 13:37:13 51°26.177 2°48.446 12.807109 3.890073 32.821185  
2001-11-12 13:38:13 51°26.17 2°48.458 12.810884 3.889471 32.818212  
2001-11-12 13:39:13 51°26.156 2°48.468 12.809086 3.889672 32.816074  
2001-11-12 13:40:13 51°26.139 2°48.471 12.805131 3.88907 32.812431  
2001-11-12 13:41:13 51°26.126 2°48.473 12.800996 3.88887 32.813899  
2001-11-12 13:42:13 51°26.116 2°48.476 12.796366 3.888068 32.809041  
2001-11-12 13:43:13 51°26.111 2°48.479 12.796006 3.886965 32.801355  
2001-11-12 13:44:13 51°26.108 2°48.483 12.795152 3.885763 32.794066  
2001-11-12 13:45:13 51°26.105 2°48.489 12.793668 3.885662 32.792453  
2001-11-12 13:46:13 51°26.1 2°48.493 12.792724 3.885863 32.795008  
2001-11-12 13:47:13 51°26.082 2°48.489 12.79722 3.885362 32.790295  
2001-11-12 13:48:13 51°26.048 2°48.497 12.826748 3.885863 32.795679  
2001-11-12 13:49:13 51°25.994 2°48.515 12.77312 3.884159 32.783675  
2001-11-12 13:50:13 51°25.927 2°48.516 12.764306 3.879849 32.759217  
2001-11-12 13:51:13 51°25.856 2°48.522 12.767859 3.879448 32.758125  
2001-11-12 13:52:13 51°25.784 2°48.545 12.77339 3.880651 32.766761  
2001-11-12 13:53:13 51°25.713 2°48.571 12.774289 3.878045 32.747603  
2001-11-12 13:54:13 51°25.641 2°48.59 12.73268 3.870929 32.702065  
2001-11-12 13:55:13 51°25.569 2°48.6 12.7289 3.869626 32.695156  
2001-11-12 13:56:13 51°25.496 2°48.617 12.72476 3.869326 32.697012  
2001-11-12 13:57:13 51°25.423 2°48.637 12.706352 3.867221 32.681212  
2001-11-12 13:58:13 51°25.349 2°48.656 12.688343 3.86241 32.653311  
2001-11-12 13:59:13 51°25.275 2°48.683 12.685056 3.859303 32.634082  
2001-11-12 14:00:13 51°25.2 2°48.711 12.677581 3.8581 32.626766  
2001-11-12 14:01:13 51°25.125 2°48.742 12.666636 3.855695 32.612799  
2001-11-12 14:02:13 51°25.05 2°48.776 12.667853 3.854192 32.603984  
2001-11-12 14:03:13 51°24.976 2°48.807 12.668708 3.854693 32.607368  
2001-11-12 14:04:13 51°24.9 2°48.83 12.664429 3.853791 32.600875  
2001-11-12 14:05:13 51°24.824 2°48.842 12.668078 3.85349 32.600048  
2001-11-12 14:06:13 51°24.748 2°48.855 12.666186 3.854091 32.602371  
2001-11-12 14:07:13 51°24.67 2°48.864 12.662853 3.853089 32.59627  
2001-11-12 14:08:13 51°24.594 2°48.881 12.663979 3.852788 32.594774  
2001-11-12 14:09:13 51°24.517 2°48.905 12.668348 3.853189 32.597214  
2001-11-12 14:10:13 51°24.439 2°48.926 12.666817 3.853791 32.599537  
2001-11-12 14:11:13 51°24.362 2°48.943 12.659925 3.852788 32.593436  
2001-11-12 14:12:13 51°24.286 2°48.969 12.664339 3.852287 32.594732  
2001-11-12 14:13:13 51°24.209 2°49.002 12.677266 3.854192 32.605991  
2001-11-12 14:14:13 51°24.133 2°49.031 12.692125 3.856597 32.617954  
2001-11-12 14:15:13 51°24.058 2°49.063 12.708422 3.859704 32.633844  
2001-11-12 14:16:13 51°23.986 2°49.107 12.70266 3.860004 32.625976  
2001-11-12 14:17:13 51°23.914 2°49.151 12.696763 3.856797 32.601123  
2001-11-12 14:18:13 51°23.841 2°49.187 12.690054 3.853891 32.580432  
2001-11-12 14:19:13 51°23.767 2°49.219 12.682129 3.851385 32.562177  
2001-11-12 14:20:13 51°23.692 2°49.251 12.709548 3.848077 32.539037  
2001-11-12 14:21:13 51°23.619 2°49.29 12.6597 3.845271 32.519942  
2001-11-12 14:22:13 51°23.545 2°49.331 12.637488 3.841062 32.493625  
2001-11-12 14:23:13 51°23.469 2°49.369 12.625501 3.834948 32.451346  
2001-11-12 14:24:13 51°23.395 2°49.408 12.614367 3.832042 32.433279  
2001-11-12 14:25:13 51°23.319 2°49.445 12.636542 3.829737 32.422874  
2001-11-12 14:26:13 51°23.242 2°49.479 12.587902 3.825728 32.396396  
2001-11-12 14:27:13 51°23.165 2°49.504 12.579469 3.822621 32.379081  
2001-11-12 14:28:13 51°23.086 2°49.523 12.57126 3.821017 32.368615  
2001-11-12 14:29:13 51°23.009 2°49.535 12.56102 3.819013 32.356363  
2001-11-12 14:30:13 51°22.926 2°49.545 12.547665 3.815706 32.335141  
2001-11-12 14:31:13 51°22.747 2°49.592 12.540986 3.814804 32.335946  
2001-11-12 14:32:13 51°22.53 2°49.64 12.528621 3.812298 32.316291  
2001-11-12 14:33:13 51°22.309 2°49.724 12.487535 3.808991 32.303034  
2001-11-12 14:34:13 51°22.09 2°49.818 12.447192 3.801675 32.26454  
2001-11-12 14:35:13 51°21.875 2°49.913 12.370821 3.786442 32.169083  
2001-11-12 14:36:13 51°21.658 2°49.994 12.31044 3.774517 32.10873  
2001-11-12 14:37:13 51°21.441 2°50.082 12.16796 3.76219 32.039795  
2001-11-12 14:38:13 51°21.294 2°50.096 11.859149 3.720203 31.855561  
2001-11-12 14:39:13 51°21.21 2°50.112 11.830419 3.690442 31.724685  
2001-11-12 14:40:13 51°21.142 2°50.127 11.836349 3.685232 31.697508  
2001-11-12 14:41:13 51°21.082 2°50.142 11.825128 3.683628 31.686169  
2001-11-12 14:42:13 51°21.023 2°50.157 11.827455 3.682426 31.679329  
2001-11-12 14:43:13 51°20.965 2°50.176 11.831286 3.681324 31.668119  
2001-11-12 14:44:13 51°20.907 2°50.198 11.830009 3.681524 31.668704  
2001-11-12 14:45:13 51°20.848 2°50.219 11.810484 3.680221 31.660903  
2001-11-12 14:46:13 51°20.788 2°50.238 11.793554 3.676815 31.645613  
2001-11-12 14:47:13 51°20.727 2°50.252 11.775387 3.675111 31.641959  
2001-11-12 14:48:13 51°20.666 2°50.262 11.748128 3.673007 31.643128  
2001-11-12 14:49:13 51°20.605 2°50.275 11.737715 3.671805 31.648944  
2001-11-12 14:50:13 51°20.542 2°50.292 11.739496 3.671304 31.653482  
2001-11-12 14:51:13 51°20.48 2°50.306 11.742876 3.672707 31.664261  
2001-11-12 14:52:13 51°20.418 2°50.32 11.741414 3.67431 31.67696  
2001-11-12 14:53:13 51°20.357 2°50.339 11.739131 3.67441 31.679924  
2001-11-12 14:54:13 51°20.295 2°50.354 11.74114 3.675412 31.688194  
2001-11-12 14:55:13 51°20.233 2°50.367 11.742922 3.675312 31.689906  
2001-11-12 14:56:13 51°20.174 2°50.391 11.758814 3.676014 31.69329  
2001-11-12 14:57:13 51°20.115 2°50.412 11.753563 3.676715 31.687991  
2001-11-12 14:58:13 51°20.056 2°50.435 11.749133 3.67421 31.669991  
2001-11-12 14:59:13 51°19.998 2°50.46 11.746119 3.672406 31.652704  
2001-11-12 15:00:13 51°19.941 2°50.484 11.72602 3.6694 31.633231  
2001-11-12 15:01:13 51°19.883 2°50.506 11.712907 3.663388 31.588929  
2001-11-12 15:02:13 51°19.825 2°50.523 11.699975 3.658277 31.551921  
2001-11-12 15:03:13 51°19.768 2°50.542 11.702168 3.654269 31.522805  
2001-11-12 15:04:13 51°19.711 2°50.56 11.737303 3.653568 31.514749  
2001-11-12 15:05:13 51°19.654 2°50.58 11.742648 3.652265 31.501593  
2001-11-12 15:06:13 51°19.597 2°50.6 11.699426 3.652766 31.501743  
2001-11-12 15:07:13 51°19.54 2°50.621 11.690559 3.650562 31.489913  
2001-11-12 15:08:13 51°19.483 2°50.642 11.727254 3.648858 31.480225  
2001-11-12 15:09:13 51°19.425 2°50.663 11.695816 3.648959 31.477863  
2001-11-12 15:10:13 51°19.366 2°50.686 11.71967 3.650361 31.486662  
2001-11-12 15:11:13 51°19.306 2°50.711 11.763289 3.655672 31.518961  
2001-11-12 15:12:13 51°19.246 2°50.736 11.737943 3.657476 31.528934  
2001-11-12 15:13:13 51°19.187 2°50.762 11.747763 3.658778 31.535433  
2001-11-12 15:14:13 51°19.127 2°50.788 11.772329 3.661383 31.55441  
2001-11-12 15:15:13 51°19.067 2°50.811 11.769544 3.666293 31.580822  
2001-11-12 15:16:13 51°19.006 2°50.832 11.769818 3.663387 31.556983  
2001-11-12 15:17:13 51°18.945 2°50.852 11.767215 3.662987 31.553144  
2001-11-12 15:18:13 51°18.883 2°50.872 11.764522 3.660882 31.536315  
2001-11-12 15:19:13 51°18.821 2°50.892 11.767398 3.658678 31.516532  
2001-11-12 15:20:13 51°18.76 2°50.913 11.77525 3.658778 31.514835  
2001-11-12 15:21:13 51°18.711 2°50.916 11.786388 3.660682 31.526424  
2001-11-12 15:22:13 51°18.674 2°50.912 11.790816 3.660581 31.518162  
2001-11-12 15:23:13 51°18.642 2°50.902 11.796018 3.65998 31.504447  
2001-11-12 15:24:13 51°18.614 2°50.89 11.796566 3.66018 31.503048  
2001-11-12 15:25:13 51°18.589 2°50.877 11.838675 3.660381 31.508946  
2001-11-12 15:26:13 51°18.565 2°50.865 11.802955 3.661784 31.515736  
2001-11-12 15:27:13 51°18.543 2°50.853 11.804096 3.661082 31.506372  
2001-11-12 15:28:13 51°18.523 2°50.84 11.80729 3.661283 31.509616  
2001-11-12 15:29:13 51°18.504 2°50.827 11.811122 3.662886 31.519649  
2001-11-12 15:30:13 51°18.486 2°50.815 11.815822 3.661984 31.509032  
2001-11-12 15:31:13 51°18.47 2°50.802 11.816825 3.661583 31.50321  
2001-11-12 15:32:13 51°18.452 2°50.791 11.818194 3.661784 31.505127  
2001-11-12 15:33:13 51°18.435 2°50.778 11.826223 3.661383 31.49798  
2001-11-12 15:34:13 51°18.419 2°50.766 11.873692 3.661583 31.494596  
2001-11-12 15:35:13 51°18.402 2°50.755 11.875242 3.662685 31.495862  
2001-11-12 15:36:13 51°18.385 2°50.743 11.838584 3.662986 31.496749  
2001-11-12 15:37:13 51°18.368 2°50.73 11.84474 3.664188 31.507582  
2001-11-12 15:38:13 51°18.352 2°50.718 11.848297 3.663787 31.497128  
2001-11-12 15:39:13 51°18.335 2°50.706 11.856049 3.663988 31.496396  
2001-11-12 15:40:13 51°18.318 2°50.694 11.856915 3.664489 31.495227  
2001-11-12 15:41:13 51°18.3 2°50.682 11.859241 3.664489 31.495227  
2001-11-12 15:42:13 51°18.283 2°50.669 11.895842 3.66519 31.499281  
2001-11-12 15:43:13 51°18.255 2°50.66 11.854225 3.664088 31.490735  
2001-11-12 15:44:13 51°18.224 2°50.684 11.852903 3.662585 31.481666  
2001-11-12 15:45:13 51°18.21 2°50.711 11.860244 3.662084 31.476217  
2001-11-12 15:46:13 51°18.205 2°50.729 11.850577 3.661683 31.469742  
2001-11-12 15:47:13 51°18.208 2°50.753 11.79725 3.656372 31.448083  
2001-11-12 15:48:13 51°18.215 2°50.786 11.787758 3.65036 31.413074  
2001-11-12 15:49:13 51°18.225 2°50.819 11.794832 3.65036 31.419027  
2001-11-12 15:50:13 51°18.236 2°50.851 11.753791 3.65026 31.420715  
2001-11-12 15:51:13 51°18.248 2°50.882 11.765252 3.641543 31.369027  
2001-11-12 15:52:13 51°18.257 2°50.916 11.712222 3.63493 31.323547  
2001-11-12 15:53:13 51°18.266 2°50.951 11.695267 3.632325 31.311808  
2001-11-12 15:54:13 51°18.275 2°50.982 11.638521 3.625912 31.275463  
2001-11-12 15:55:13 51°18.364 2°50.92 11.595781 3.614189 31.215874  
2001-11-12 15:56:13 51°18.483 2°50.642 11.777989 3.611484 31.203119  
2001-11-12 15:57:13 51°18.581 2°50.309 11.785658 3.648858 31.420526  
2001-11-12 15:58:13 51°18.683 2°49.977 11.767261 3.657175 31.493512  
2001-11-12 15:59:13 51°18.79 2°49.652 11.774566 3.658578 31.514244  
2001-11-12 16:00:13 51°18.897 2°49.327 11.792961 3.666694 31.568037  
2001-11-12 16:01:13 51°18.995 2°48.989 11.761919 3.668498 31.60127  
2001-11-12 16:02:13 51°19.094 2°48.645 11.754704 3.665091 31.580616  
2001-11-12 16:03:13 51°19.208 2°48.318 11.721406 3.664891 31.589347  
2001-11-12 16:04:13 51°19.31 2°48.075 11.789994 3.660081 31.56189  
2001-11-12 16:05:13 51°19.261 2°47.904 11.765846 3.671404 31.651774  
2001-11-12 16:06:13 51°19.192 2°47.971 11.77347 3.673108 31.662763  
2001-11-12 16:07:13 51°19.185 2°47.997 11.768494 3.67421 31.666654  
2001-11-12 16:08:13 51°19.189 2°48.022 11.760184 3.673709 31.65785  
2001-11-12 16:09:13 51°19.197 2°48.062 11.742876 3.670001 31.640995  
2001-11-12 16:10:13 51°19.197 2°48.112 11.740044 3.668999 31.636058  
2001-11-12 16:11:13 51°19.195 2°48.163 11.721771 3.668398 31.632296  
2001-11-12 16:12:13 51°19.2 2°48.207 11.705642 3.65938 31.568485  
2001-11-12 16:13:13 51°19.205 2°48.243 11.704865 3.656173 31.547056  
2001-11-12 16:14:13 51°19.21 2°48.275 11.708703 3.655272 31.539072  
2001-11-12 16:15:13 51°19.217 2°48.302 11.71341 3.654871 31.530567  
2001-11-12 16:16:13 51°19.224 2°48.327 11.707424 3.655271 31.53308  
2001-11-12 16:17:13 51°19.229 2°48.352 11.70491 3.653568 31.520071  
2001-11-12 16:18:13 51°19.231 2°48.38 11.703996 3.653067 31.517927  
2001-11-12 16:19:14 51°19.232 2°48.41 11.70523 3.652666 31.510757  
2001-11-12 16:20:13 51°19.194 2°48.567 11.700797 3.653167 31.514896  
2001-11-12 16:21:13 51°19.106 2°48.858 12.735155 3.650362 31.499296  
2001-11-12 16:22:13 51°19.028 2°49.167 12.73349 3.64936 31.499662  
2001-11-12 16:23:14 51°18.895 2°49.451 12.939615 3.647456 31.476741  
2001-11-12 16:24:14 51°18.779 2°49.744 12.96361 3.652165 31.505287  
2001-11-12 16:25:14 51°18.645 2°50.03 13.185163 3.655271 31.517779  
2001-11-12 16:26:14 51°18.509 2°50.313 13.068278 3.652666 31.495465  
2001-11-12 16:27:14 51°18.363 2°50.585 12.843865 3.646954 31.440062  
2001-11-12 16:28:14 51°18.224 2°50.862 12.604179 3.633227 31.332351  
2001-11-12 16:29:14 51°18.074 2°51.125 12.8214 3.608178 31.186567  
2001-11-12 16:30:14 51°17.917 2°51.38 12.606073 3.600663 31.135518  
2001-11-12 16:31:14 51°17.76 2°51.633 12.490696 3.598358 31.112061  
2001-11-12 16:32:14 51°17.6 2°51.888 12.24393 3.602867 31.127661  
2001-11-12 16:33:14 51°17.411 2°52.101 12.5186 3.596354 31.076343  
2001-11-12 16:34:14 51°17.206 2°52.284 12.361229 3.581426 30.981652  
2001-11-12 16:35:14 51°17.003 2°52.464 12.161788 3.561488 30.855644  
2001-11-12 16:36:14 51°16.792 2°52.622 12.629917 3.545658 30.768198  
2001-11-12 16:37:14 51°16.59 2°52.81 12.14976 3.531432 30.692034  
2001-11-12 16:38:14 51°16.437 2°52.939 12.051773 3.511596 30.577836  
2001-11-12 16:39:14 51°16.301 2°53.045 11.911561 3.504383 30.558563  
2001-11-12 16:40:14 51°16.108 2°53.209 11.891011 3.503782 30.569154  
2001-11-12 16:41:14 51°15.909 2°53.379 11.712816 3.489456 30.469098  
2001-11-12 16:42:14 51°15.71 2°53.557 11.656771 3.468218 30.298606  
2001-11-12 16:43:14 51°15.515 2°53.738 11.723233 3.4579 30.213593  
2001-11-12 16:44:14 51°15.319 2°53.921 11.765343 3.453192 30.178369  
2001-11-12 16:45:14 51°15.132 2°54.11 11.895067 3.452791 30.177087  
2001-11-12 16:46:14 51°14.947 2°54.288 11.658738 3.453192 30.179019  
2001-11-12 16:47:14 51°14.777 2°54.487 11.879572 3.448383 30.14476  
2001-11-12 16:48:14 51°14.619 2°54.684 11.805282 3.445178 30.120178  
2001-11-12 16:49:14 51°14.473 2°54.896 11.601777 3.436863 30.048645  
2001-11-12 16:50:14 51°14.339 2°55.126 11.708338 3.417529 29.865778  
2001-11-12 16:51:14 51°14.208 2°55.345 11.211572 3.052403 26.546085  
2001-11-12 16:52:15 51°14.062 2°55.464 10.911751 2.618787 22.598535  
2001-11-12 16:53:19 51°13.945 2°55.551 10.90657 2.434975 20.95433  
2001-11-12 16:54:19 51°13.824 2°55.638 10.98017 2.31461 19.885267  
2001-11-12 16:55:19 51°13.725 2°55.768 10.786378 2.387285 20.571948  
2001-11-12 16:56:19 51°13.65 2°55.941 10.066322 1.434391 11.988232  
2001-11-12 16:57:19 51°13.602 2°56.053 9.984839 1.405889 11.769639  
2001-11-12 16:58:19 51°13.575 2°56.134 10.128467 1.504664 12.660578  
2001-11-12 16:59:19 51°13.553 2°56.214 9.862423 1.459707 12.268207  
2001-11-12 17:00:19 51°13.523 2°56.28 10.062573 1.537665 12.970058  
2001-11-12 17:01:19 51°13.517 2°56.285 10.186579 1.412168 11.845292  
2001-11-12 17:02:19 51°13.514 2°56.279 10.380051 1.722584 14.644239  
2001-11-12 17:03:19 51°13.515 2°56.27 10.370678 1.85242 15.798092  
2001-11-12 17:04:19 51°13.52 2°56.273 11.003499 1.932087 16.518812  
2001-11-12 17:05:19 51°13.527 2°56.226 10.834093 2.183593 18.793696  
2001-11-12 17:06:19 51°13.55 2°56.155 10.935382 2.500172 21.673944  
2001-11-12 17:07:19 51°13.576 2°56.094 10.806256 2.419879 20.937297  
2001-11-12 17:08:19 51°13.606 2°56.041 10.628721 2.223763 19.150349  
2001-11-12 17:09:19 51°13.636 2°55.994 10.707133 2.088382 17.919255  
2001-11-12 17:10:19 51°13.662 2°55.952 10.821079 2.033845 17.427216  
2001-11-12 17:11:19 51°13.679 2°55.917 10.818068 2.104465 18.054346  
2001-11-12 17:12:19 51°13.684 2°55.907 10.882836 2.198381 18.899675  
2001-11-12 17:13:19 51°13.686 2°55.906 10.923961 2.287324 19.701443  
2001-11-12 17:14:19 51°13.686 2°55.907 10.781095 2.238653 19.256413